Time;durP1;ratioP1;P1;durP2;ratioP2;P2;SDS_P1;SDS_P2;PMS_P1;PMS_P2;Temp;Humidity;BMP_temperature;BMP_pressure;BME280_temperature;BME280_humidity;BME280_pressure;Samples;Min_cycle;Max_cycle;Signal;HPM_P1;HPM_P2
2022/03/26 00:00:22;;;;;;;30.33;19.00;;;;;;;9.97;43.36;97675.59;5074460;28;20396;-64
2022/03/26 00:02:49;;;;;;;34.90;19.37;;;;;;;10.01;43.87;97674.19;5074506;28;20406;-64
2022/03/26 00:05:15;;;;;;;30.25;19.10;;;;;;;9.96;43.93;97669.56;5074539;28;20449;-63
2022/03/26 00:07:41;;;;;;;33.15;19.73;;;;;;;9.84;43.84;97673.78;5074410;28;20432;-63
2022/03/26 00:10:07;;;;;;;30.67;20.33;;;;;;;9.61;44.39;97670.69;5074445;28;20478;-63
2022/03/26 00:12:32;;;;;;;31.95;20.30;;;;;;;9.46;44.71;97664.84;5073612;28;20898;-64
2022/03/26 00:14:58;;;;;;;35.60;20.47;;;;;;;9.43;45.34;97670.44;5073928;28;20585;-64
2022/03/26 00:17:25;;;;;;;32.83;19.90;;;;;;;9.40;45.00;97661.19;5070880;28;20411;-64
2022/03/26 00:19:51;;;;;;;32.78;19.85;;;;;;;9.47;45.16;97662.00;5073317;28;20394;-68
2022/03/26 00:22:17;;;;;;;35.25;19.85;;;;;;;9.48;45.02;97674.09;5073953;28;20445;-66
2022/03/26 00:24:42;;;;;;;29.20;19.53;;;;;;;9.56;44.98;97665.25;5066050;28;20391;-63
2022/03/26 00:27:08;;;;;;;32.43;19.33;;;;;;;9.62;44.97;97672.31;5073611;28;20814;-63
2022/03/26 00:29:33;;;;;;;32.28;19.20;;;;;;;9.55;44.91;97667.06;5073438;28;20442;-64
2022/03/26 00:31:59;;;;;;;30.23;19.33;;;;;;;9.62;44.70;97661.03;5073725;28;20388;-64
2022/03/26 00:34:24;;;;;;;36.33;20.23;;;;;;;9.59;45.11;97664.84;5073896;28;20428;-63
2022/03/26 00:36:49;;;;;;;31.87;19.23;;;;;;;9.59;45.04;97662.22;5073846;28;20408;-63
2022/03/26 00:39:15;;;;;;;30.83;18.90;;;;;;;9.61;44.78;97662.84;5068259;28;20407;-64
2022/03/26 00:41:41;;;;;;;32.93;19.07;;;;;;;9.78;44.51;97658.03;5074029;28;20444;-64
2022/03/26 00:44:06;;;;;;;29.63;18.90;;;;;;;9.65;44.74;97668.47;5073755;28;20740;-63
2022/03/26 00:46:31;;;;;;;33.07;19.80;;;;;;;9.74;44.63;97660.25;5071621;28;20399;-64
2022/03/26 00:48:57;;;;;;;29.40;18.83;;;;;;;9.77;44.31;97662.47;5073609;28;20425;-64
2022/03/26 00:51:23;;;;;;;33.93;19.50;;;;;;;9.62;44.60;97667.09;5073676;28;20398;-63
2022/03/26 00:53:48;;;;;;;29.03;19.07;;;;;;;9.56;44.94;97660.84;5073848;28;20380;-64
2022/03/26 00:56:14;;;;;;;30.80;19.07;;;;;;;9.65;44.93;97665.88;5067800;28;20407;-64
2022/03/26 00:58:40;;;;;;;29.13;18.35;;;;;;;9.53;45.09;97663.81;5072882;28;20407;-64
2022/03/26 01:01:07;;;;;;;29.25;18.02;;;;;;;9.37;45.18;97652.91;5073532;28;20391;-64
2022/03/26 01:03:32;;;;;;;33.20;19.00;;;;;;;9.45;45.33;97658.00;5071995;28;20392;-64
2022/03/26 01:05:58;;;;;;;30.27;19.27;;;;;;;9.31;45.29;97664.16;5073540;28;20386;-64
2022/03/26 01:08:23;;;;;;;32.05;19.08;;;;;;;9.11;45.83;97672.78;5073333;28;20386;-64
2022/03/26 01:10:48;;;;;;;29.27;18.67;;;;;;;9.07;46.19;97666.31;5070094;28;20880;-64
2022/03/26 01:13:14;;;;;;;32.55;19.25;;;;;;;9.18;45.71;97659.72;5071901;28;20392;-66
2022/03/26 01:15:40;;;;;;;28.10;19.43;;;;;;;9.13;45.82;97664.75;5073034;28;20923;-63
2022/03/26 01:18:06;;;;;;;31.67;19.10;;;;;;;9.08;45.97;97664.53;5071179;28;20443;-64
2022/03/26 01:20:32;;;;;;;31.33;18.60;;;;;;;8.98;46.16;97664.84;5072851;28;20392;-64
2022/03/26 01:22:57;;;;;;;31.80;18.80;;;;;;;9.10;46.27;97663.31;5072805;28;20428;-64
2022/03/26 01:25:24;;;;;;;30.92;18.85;;;;;;;8.96;46.17;97661.66;5073055;28;20434;-65
2022/03/26 01:27:49;;;;;;;31.67;18.57;;;;;;;8.81;46.87;97668.78;5072758;28;20404;-66
2022/03/26 01:30:15;;;;;;;30.73;18.90;;;;;;;8.86;46.77;97663.00;5072048;28;20725;-63
2022/03/26 01:32:40;;;;;;;32.67;19.42;;;;;;;8.76;46.84;97658.91;5072363;28;20856;-64
2022/03/26 01:35:06;;;;;;;29.07;18.57;;;;;;;8.81;47.11;97660.94;5072507;28;20414;-64
2022/03/26 01:37:32;;;;;;;32.45;18.77;;;;;;;8.78;46.72;97658.75;5072626;28;20403;-64
2022/03/26 01:39:57;;;;;;;28.90;18.48;;;;;;;8.76;47.02;97658.91;5073094;28;20449;-63
2022/03/26 01:42:23;;;;;;;32.03;17.83;;;;;;;8.75;46.94;97662.53;5072364;28;20396;-65
2022/03/26 01:44:48;;;;;;;31.08;19.50;;;;;;;8.69;47.13;97660.69;5072633;28;21078;-64
2022/03/26 01:47:14;;;;;;;30.33;18.55;;;;;;;8.67;47.48;97662.72;5072722;28;20392;-64
2022/03/26 01:49:39;;;;;;;30.33;19.37;;;;;;;8.71;47.25;97660.50;5072714;28;20471;-64
2022/03/26 01:52:07;;;;;;;30.13;18.73;;;;;;;8.84;46.48;97657.16;5072380;28;20428;-65
2022/03/26 01:54:33;;;;;;;32.03;18.92;;;;;;;8.73;47.52;97656.72;5070741;28;20431;-65
2022/03/26 01:56:59;;;;;;;29.77;19.10;;;;;;;8.70;47.29;97651.84;5072638;28;20419;-63
2022/03/26 01:59:25;;;;;;;31.00;19.67;;;;;;;8.66;47.72;97653.25;5071246;28;20895;-64
2022/03/26 02:01:50;;;;;;;31.80;19.20;;;;;;;8.47;48.17;97651.31;5072240;28;20872;-64
2022/03/26 02:04:16;;;;;;;30.70;19.57;;;;;;;8.41;48.41;97651.28;5071043;28;20405;-64
2022/03/26 02:06:42;;;;;;;34.05;19.02;;;;;;;8.46;48.19;97651.53;5072201;28;20399;-64
2022/03/26 02:09:10;;;;;;;31.88;19.38;;;;;;;8.34;48.57;97649.44;5071844;28;20384;-65
2022/03/26 02:11:38;;;;;;;34.33;19.80;;;;;;;8.33;48.37;97660.88;5071567;28;20399;-64
2022/03/26 02:14:07;;;;;;;32.93;19.73;;;;;;;8.38;48.43;97656.88;5071916;28;20752;-64
2022/03/26 02:16:33;;;;;;;33.33;19.33;;;;;;;8.21;49.07;97653.72;5070207;28;20946;-63
2022/03/26 02:18:59;;;;;;;30.67;19.35;;;;;;;8.31;48.76;97652.41;5072192;28;20380;-64
2022/03/26 02:21:24;;;;;;;31.88;19.27;;;;;;;8.40;48.62;97652.28;5071756;28;20403;-64
2022/03/26 02:23:51;;;;;;;31.05;19.60;;;;;;;8.35;48.68;97655.47;5054523;28;20400;-65
2022/03/26 02:26:20;;;;;;;32.42;19.38;;;;;;;8.37;49.06;97650.84;5071826;28;20443;-65
2022/03/26 02:28:45;;;;;;;33.13;19.50;;;;;;;8.14;49.30;97651.06;5072006;28;20403;-64
2022/03/26 02:31:14;;;;;;;33.63;19.23;;;;;;;8.28;48.99;97651.97;5071598;28;20747;-64
2022/03/26 02:33:40;;;;;;;31.63;19.25;;;;;;;8.25;49.12;97654.94;5071740;28;20933;-64
2022/03/26 02:36:06;;;;;;;34.75;19.98;;;;;;;8.25;48.85;97644.50;5071891;28;20391;-63
2022/03/26 02:38:33;;;;;;;29.77;19.08;;;;;;;8.24;49.11;97648.94;5071508;28;20730;-64
2022/03/26 02:40:58;;;;;;;33.58;19.33;;;;;;;8.08;49.53;97649.19;5070102;28;20392;-65
2022/03/26 02:43:24;;;;;;;30.83;18.40;;;;;;;8.03;49.30;97648.97;5071424;28;20430;-63
2022/03/26 02:45:49;;;;;;;32.17;19.17;;;;;;;8.04;49.28;97653.19;5071943;28;20431;-65
2022/03/26 02:48:15;;;;;;;29.37;18.93;;;;;;;8.01;49.75;97647.56;5058113;28;20745;-64
2022/03/26 02:50:44;;;;;;;32.80;18.48;;;;;;;7.98;49.62;97650.53;5071425;28;20391;-70
2022/03/26 02:53:10;;;;;;;31.83;19.20;;;;;;;8.01;49.53;97656.19;5071924;28;20400;-64
2022/03/26 02:55:38;;;;;;;31.00;18.93;;;;;;;7.87;50.08;97655.25;5071810;28;20407;-63
2022/03/26 02:58:03;;;;;;;30.75;19.27;;;;;;;7.84;50.34;97654.84;5071941;28;20412;-65
2022/03/26 03:00:29;;;;;;;32.65;19.13;;;;;;;7.57;50.74;97655.59;5071165;28;20407;-64
2022/03/26 03:02:55;;;;;;;30.73;19.23;;;;;;;7.57;50.83;97660.81;5070812;28;20420;-64
2022/03/26 03:05:20;;;;;;;29.20;19.00;;;;;;;7.66;50.75;97659.69;5071544;28;20917;-64
2022/03/26 03:07:45;;;;;;;29.45;19.15;;;;;;;7.98;50.30;97653.13;5071102;28;20910;-64
2022/03/26 03:10:15;;;;;;;31.47;18.63;;;;;;;7.65;50.57;97648.44;5069839;28;20791;-62
2022/03/26 03:12:50;;;;;;;32.28;18.80;;;;;;;7.60;50.69;97648.19;5071312;28;20388;-64
2022/03/26 03:15:17;;;;;;;30.20;18.45;;;;;;;7.55;50.95;97644.53;5071154;28;20902;-63
2022/03/26 03:17:44;;;;;;;30.07;18.27;;;;;;;7.52;50.99;97640.50;5053790;28;20771;-63
2022/03/26 03:20:11;;;;;;;30.30;18.40;;;;;;;7.58;50.77;97644.94;5071335;28;20391;-64
2022/03/26 03:22:37;;;;;;;29.73;18.45;;;;;;;7.65;50.66;97638.00;5068464;28;20914;-64
2022/03/26 03:25:04;;;;;;;30.33;18.23;;;;;;;7.53;50.63;97639.50;5071124;28;20471;-65
2022/03/26 03:27:30;;;;;;;30.50;18.10;;;;;;;7.57;50.78;97634.72;5071489;28;20396;-65
2022/03/26 03:29:55;;;;;;;30.83;18.57;;;;;;;7.63;50.37;97632.19;5069640;28;20408;-64
2022/03/26 03:32:21;;;;;;;30.57;18.03;;;;;;;7.66;50.56;97633.59;5068508;28;20495;-64
2022/03/26 03:34:46;;;;;;;29.83;17.45;;;;;;;7.50;50.85;97624.22;5071447;28;20388;-64
2022/03/26 03:37:11;;;;;;;30.00;17.80;;;;;;;7.56;50.75;97630.50;5070830;28;20941;-64
2022/03/26 03:39:37;;;;;;;29.75;18.05;;;;;;;7.51;50.61;97624.03;5067970;28;20399;-65
2022/03/26 03:42:04;;;;;;;33.83;18.53;;;;;;;7.51;50.54;97626.66;5070688;28;20392;-64
2022/03/26 03:44:29;;;;;;;30.83;17.70;;;;;;;7.43;50.72;97625.94;5071194;28;20764;-64
2022/03/26 03:46:55;;;;;;;28.52;18.02;;;;;;;7.40;50.77;97627.16;5071107;28;20446;-64
2022/03/26 03:49:20;;;;;;;31.67;17.77;;;;;;;7.42;50.95;97625.13;5070592;28;20760;-64
2022/03/26 03:51:46;;;;;;;30.83;18.00;;;;;;;7.35;51.01;97631.31;5071526;28;20445;-64
2022/03/26 03:54:11;;;;;;;30.13;17.83;;;;;;;7.46;51.06;97618.59;5072259;28;20392;-65
2022/03/26 03:56:38;;;;;;;30.53;17.80;;;;;;;7.43;50.98;97618.13;5074768;28;20821;-64
2022/03/26 03:59:03;;;;;;;31.45;18.13;;;;;;;7.34;51.23;97621.84;5074678;28;20453;-63
2022/03/26 04:01:29;;;;;;;26.52;17.67;;;;;;;7.33;51.15;97630.66;5074546;28;20395;-63
2022/03/26 04:03:54;;;;;;;30.03;17.20;;;;;;;7.27;51.46;97626.19;5075208;28;20492;-63
2022/03/26 04:06:20;;;;;;;29.13;17.77;;;;;;;7.18;51.60;97625.50;5074708;28;20396;-65
2022/03/26 04:08:45;;;;;;;28.53;16.73;;;;;;;7.15;51.43;97620.66;5073036;28;20399;-65
2022/03/26 04:11:10;;;;;;;29.87;18.07;;;;;;;7.22;51.76;97621.53;5074477;28;20384;-63
2022/03/26 04:13:36;;;;;;;30.37;17.83;;;;;;;7.25;51.56;97623.75;5074701;28;22029;-64
2022/03/26 04:16:02;;;;;;;32.10;18.00;;;;;;;7.24;51.64;97624.78;5072390;28;20459;-64
2022/03/26 04:18:27;;;;;;;32.33;18.25;;;;;;;7.17;51.89;97618.69;5074282;28;20417;-63
2022/03/26 04:20:56;;;;;;;28.87;18.00;;;;;;;7.11;52.00;97622.00;5073761;28;20480;-64
2022/03/26 04:23:22;;;;;;;29.88;17.20;;;;;;;7.18;51.90;97622.91;5073684;28;20387;-64
2022/03/26 04:25:48;;;;;;;31.02;17.88;;;;;;;7.13;52.12;97621.84;5073658;28;20422;-64
2022/03/26 04:28:13;;;;;;;28.40;18.33;;;;;;;6.98;52.50;97620.06;5074431;28;20494;-64
2022/03/26 04:30:39;;;;;;;30.50;17.67;;;;;;;6.91;52.67;97628.81;5073841;28;20392;-64
2022/03/26 04:33:04;;;;;;;33.65;18.15;;;;;;;7.00;52.85;97632.91;5073605;28;20933;-64
2022/03/26 04:35:30;;;;;;;29.37;17.60;;;;;;;6.92;52.93;97633.00;5074111;28;20471;-64
2022/03/26 04:37:56;;;;;;;29.73;17.80;;;;;;;6.77;53.02;97632.22;5071021;28;20907;-65
2022/03/26 04:40:23;;;;;;;32.70;18.03;;;;;;;6.78;53.45;97631.25;5060424;28;20409;-64
2022/03/26 04:42:48;;;;;;;30.15;17.65;;;;;;;6.86;53.07;97626.72;5073939;28;20403;-65
2022/03/26 04:45:14;;;;;;;32.50;18.27;;;;;;;6.96;52.73;97629.06;5074047;28;20389;-64
2022/03/26 04:47:40;;;;;;;32.13;18.40;;;;;;;6.67;53.73;97627.31;5072072;28;20784;-64
2022/03/26 04:50:06;;;;;;;33.60;18.90;;;;;;;6.70;53.40;97626.94;5073248;28;20387;-63
2022/03/26 04:52:32;;;;;;;28.63;17.15;;;;;;;6.49;54.10;97622.47;5073254;28;20392;-64
2022/03/26 04:54:58;;;;;;;30.40;17.60;;;;;;;6.65;53.90;97622.28;5071916;28;20401;-64
2022/03/26 04:57:24;;;;;;;32.63;18.13;;;;;;;6.65;54.12;97611.84;5072780;28;20438;-63
2022/03/26 04:59:49;;;;;;;30.70;17.70;;;;;;;6.63;53.92;97626.84;5073308;28;20525;-63
2022/03/26 05:02:14;;;;;;;28.35;17.15;;;;;;;6.68;53.85;97631.53;5072068;28;20396;-64
2022/03/26 05:04:40;;;;;;;28.47;17.97;;;;;;;6.63;53.74;97632.03;5071388;28;20474;-63
2022/03/26 05:07:45;;;;;;;31.17;18.47;;;;;;;6.55;54.19;97642.56;5073619;28;20486;-64
2022/03/26 05:09:51;;;;;;;27.70;17.30;;;;;;;6.51;54.17;97637.91;5057772;28;20399;-64
2022/03/26 05:12:17;;;;;;;30.87;17.80;;;;;;;6.39;55.03;97644.53;5072063;28;20388;-63
2022/03/26 05:14:43;;;;;;;32.50;17.92;;;;;;;6.32;55.11;97641.03;5072352;28;20380;-64
2022/03/26 05:17:09;;;;;;;31.58;17.90;;;;;;;6.38;55.06;97648.13;5072419;28;20941;-63
2022/03/26 05:19:35;;;;;;;30.20;18.13;;;;;;;6.38;55.43;97648.13;5072647;28;20408;-67
2022/03/26 05:22:00;;;;;;;32.55;18.27;;;;;;;6.35;55.17;97649.31;5073222;28;20860;-65
2022/03/26 05:24:26;;;;;;;31.23;17.93;;;;;;;6.61;54.42;97646.25;5072339;28;20399;-64
2022/03/26 05:26:51;;;;;;;31.95;17.95;;;;;;;6.55;54.82;97645.19;5072462;28;20420;-63
2022/03/26 05:29:17;;;;;;;29.98;17.90;;;;;;;6.51;54.93;97646.53;5054955;28;20395;-65
2022/03/26 05:31:43;;;;;;;30.80;18.87;;;;;;;6.48;54.89;97644.28;5072085;28;20392;-64
2022/03/26 05:34:09;;;;;;;28.00;17.75;;;;;;;6.42;54.88;97647.59;5072313;28;20408;-63
2022/03/26 05:36:34;;;;;;;31.03;18.70;;;;;;;6.49;55.20;97651.09;5072766;28;20426;-65
2022/03/26 05:38:59;;;;;;;32.77;18.37;;;;;;;6.41;55.31;97653.00;5072063;28;20419;-64
2022/03/26 05:41:26;;;;;;;30.60;17.60;;;;;;;6.55;54.79;97654.78;5072051;28;20409;-64
2022/03/26 05:43:52;;;;;;;32.00;18.50;;;;;;;6.79;54.49;97653.72;5072825;28;20858;-64
2022/03/26 05:46:17;;;;;;;30.20;18.50;;;;;;;6.80;54.22;97658.72;5072825;28;20458;-65
2022/03/26 05:48:42;;;;;;;33.00;17.93;;;;;;;6.92;53.72;97667.69;5072308;28;20868;-63
2022/03/26 05:51:08;;;;;;;30.00;17.40;;;;;;;7.15;53.10;97666.75;5072246;28;20442;-64
2022/03/26 05:53:33;;;;;;;31.83;17.63;;;;;;;6.89;53.68;97675.06;5072278;28;20387;-63
2022/03/26 05:55:59;;;;;;;31.30;18.43;;;;;;;7.16;53.33;97676.19;5072227;28;20419;-64
2022/03/26 05:58:25;;;;;;;31.70;18.10;;;;;;;7.34;53.07;97674.00;5072607;28;20407;-64
2022/03/26 06:00:50;;;;;;;30.52;18.92;;;;;;;7.43;52.33;97683.31;5072244;28;20470;-64
2022/03/26 06:03:17;;;;;;;29.63;18.50;;;;;;;7.33;52.72;97675.81;5071960;28;20407;-64
2022/03/26 06:05:43;;;;;;;32.25;18.17;;;;;;;7.38;52.79;97673.44;5063944;28;20394;-65
2022/03/26 06:08:08;;;;;;;30.03;17.80;;;;;;;7.78;52.01;97684.28;5071725;28;20752;-64
2022/03/26 06:10:35;;;;;;;31.00;17.55;;;;;;;8.08;51.05;97690.97;5071167;28;20481;-64
2022/03/26 06:13:00;;;;;;;32.20;18.10;;;;;;;8.26;50.96;97693.94;5071598;28;20391;-64
2022/03/26 06:15:26;;;;;;;30.50;17.90;;;;;;;8.53;50.29;97692.34;5069894;28;20583;-64
2022/03/26 06:17:51;;;;;;;29.05;17.80;;;;;;;8.59;49.76;97686.38;5071014;28;20411;-64
2022/03/26 06:20:16;;;;;;;30.03;18.27;;;;;;;8.53;49.73;97697.56;5072151;28;20418;-64
2022/03/26 06:22:42;;;;;;;32.10;17.90;;;;;;;8.81;49.27;97700.16;5053838;28;20474;-64
2022/03/26 06:25:08;;;;;;;32.27;18.73;;;;;;;8.47;49.31;97705.38;5071589;28;20399;-64
2022/03/26 06:27:33;;;;;;;28.67;17.85;;;;;;;8.52;49.58;97719.50;5071483;28;20756;-64
2022/03/26 06:29:58;;;;;;;30.77;18.10;;;;;;;8.18;50.16;97712.38;5071158;28;20410;-65
2022/03/26 06:32:24;;;;;;;29.67;18.40;;;;;;;7.91;51.05;97720.97;5071631;28;20388;-63
2022/03/26 06:34:50;;;;;;;28.40;17.33;;;;;;;7.78;51.50;97724.25;5071619;28;20400;-65
2022/03/26 06:37:16;;;;;;;30.75;17.73;;;;;;;7.80;51.42;97722.25;5072000;28;20440;-64
2022/03/26 06:39:41;;;;;;;30.35;18.17;;;;;;;8.05;51.00;97721.88;5071259;28;20864;-64
2022/03/26 06:42:08;;;;;;;32.70;18.87;;;;;;;8.08;51.24;97714.47;5066608;28;20396;-65
2022/03/26 06:44:33;;;;;;;31.75;19.00;;;;;;;8.39;50.61;97721.19;5071474;28;20912;-65
2022/03/26 06:46:59;;;;;;;29.70;18.43;;;;;;;8.36;50.58;97711.91;5071531;28;20478;-64
2022/03/26 06:49:27;;;;;;;30.53;17.83;;;;;;;8.67;49.34;97717.59;5071895;28;20463;-65
2022/03/26 06:51:52;;;;;;;28.85;17.73;;;;;;;8.65;49.76;97723.97;5071523;28;20391;-64
2022/03/26 06:54:18;;;;;;;30.25;17.65;;;;;;;8.68;49.31;97723.63;5071317;28;20474;-68
2022/03/26 06:56:44;;;;;;;32.07;18.03;;;;;;;8.74;49.17;97744.56;5071228;28;20450;-64
2022/03/26 06:59:09;;;;;;;33.55;18.33;;;;;;;8.68;49.22;97732.28;5071859;28;20461;-64
2022/03/26 07:01:34;;;;;;;28.88;18.35;;;;;;;8.39;50.12;97731.63;5071785;28;20415;-65
2022/03/26 07:04:00;;;;;;;29.90;18.40;;;;;;;8.50;49.52;97728.50;5071000;28;20396;-64
2022/03/26 07:06:25;;;;;;;30.17;17.67;;;;;;;8.40;50.22;97731.47;5071101;28;20400;-65
2022/03/26 07:08:51;;;;;;;28.03;16.63;;;;;;;8.57;49.74;97734.59;5070117;28;20483;-65
2022/03/26 07:11:17;;;;;;;29.95;18.10;;;;;;;8.61;49.75;97741.88;5069664;28;20403;-64
2022/03/26 07:13:42;;;;;;;31.20;18.30;;;;;;;8.33;50.34;97741.84;5070339;28;20391;-64
2022/03/26 07:16:08;;;;;;;28.13;17.42;;;;;;;8.42;50.32;97750.34;5053239;28;20943;-63
2022/03/26 07:18:34;;;;;;;30.23;18.17;;;;;;;8.69;49.70;97746.94;5035631;28;20405;-65
2022/03/26 07:21:00;;;;;;;28.42;17.67;;;;;;;8.61;49.75;97747.09;5070683;28;20426;-64
2022/03/26 07:23:27;;;;;;;30.20;17.38;;;;;;;8.33;50.13;97748.88;5070981;28;20419;-65
2022/03/26 07:25:53;;;;;;;30.55;18.45;;;;;;;8.56;50.17;97756.50;5070796;28;20414;-65
2022/03/26 07:28:18;;;;;;;29.60;18.85;;;;;;;8.92;49.33;97758.94;5072739;28;20403;-66
2022/03/26 07:30:44;;;;;;;27.77;17.87;;;;;;;8.32;49.96;97749.88;5073125;28;20456;-64
2022/03/26 07:33:09;;;;;;;31.20;17.73;;;;;;;8.72;48.96;97749.19;5074991;28;20731;-65
2022/03/26 07:35:35;;;;;;;33.77;18.27;;;;;;;8.73;49.08;97756.03;5075160;28;20454;-64
2022/03/26 07:38:00;;;;;;;30.13;17.67;;;;;;;9.03;48.83;97753.97;5074964;28;21012;-65
2022/03/26 07:40:25;;;;;;;29.47;18.30;;;;;;;9.05;48.29;97754.59;5074328;28;20402;-65
2022/03/26 07:42:51;;;;;;;30.52;17.88;;;;;;;9.33;47.75;97753.75;5074761;28;20395;-65
2022/03/26 07:45:17;;;;;;;32.60;19.03;;;;;;;9.21;47.80;97761.31;5075034;28;20440;-65
2022/03/26 07:47:42;;;;;;;28.53;18.00;;;;;;;9.33;47.25;97762.41;5074717;28;20484;-65
2022/03/26 07:50:08;;;;;;;30.70;19.03;;;;;;;9.59;47.01;97759.88;5075348;28;20461;-65
2022/03/26 07:52:34;;;;;;;30.52;18.38;;;;;;;9.85;46.44;97759.16;5058254;28;20519;-65
2022/03/26 07:55:00;;;;;;;28.20;17.80;;;;;;;9.66;47.30;97761.72;5074770;28;20388;-64
2022/03/26 07:57:26;;;;;;;28.83;18.23;;;;;;;9.58;47.30;97762.72;5073368;28;20416;-64
2022/03/26 07:59:52;;;;;;;30.33;18.85;;;;;;;9.66;46.49;97757.28;5075040;28;20403;-64
2022/03/26 08:02:17;;;;;;;32.72;19.13;;;;;;;9.91;46.91;97768.03;5074912;28;20529;-64
2022/03/26 08:04:45;;;;;;;33.20;19.03;;;;;;;10.30;46.11;97760.28;5073305;28;20413;-64
2022/03/26 08:07:11;;;;;;;30.75;18.63;;;;;;;10.02;45.68;97759.63;5074417;28;20395;-65
2022/03/26 08:09:36;;;;;;;30.00;18.55;;;;;;;10.22;46.20;97770.94;5074519;28;20384;-65
2022/03/26 08:12:03;;;;;;;32.43;18.70;;;;;;;10.57;45.12;97761.09;5056620;28;20410;-65
2022/03/26 08:14:30;;;;;;;30.67;18.65;;;;;;;10.57;45.67;97768.16;5064815;28;20750;-64
2022/03/26 08:16:56;;;;;;;30.67;18.30;;;;;;;10.63;45.78;97767.34;5074282;28;20733;-65
2022/03/26 08:19:21;;;;;;;30.85;19.48;;;;;;;10.66;45.34;97759.88;5073769;28;20474;-63
2022/03/26 08:21:47;;;;;;;29.27;18.03;;;;;;;10.68;45.75;97767.53;5072474;28;20487;-68
2022/03/26 08:24:13;;;;;;;33.78;20.20;;;;;;;10.60;45.21;97767.72;5072913;28;20464;-64
2022/03/26 08:26:39;;;;;;;32.30;18.65;;;;;;;10.58;45.43;97777.63;5056369;28;20477;-64
2022/03/26 08:29:05;;;;;;;30.38;18.48;;;;;;;10.33;45.93;97775.59;5073326;28;20398;-69
2022/03/26 08:31:31;;;;;;;29.77;17.92;;;;;;;10.61;45.52;97783.25;5073109;28;20784;-63
2022/03/26 08:33:57;;;;;;;30.67;19.23;;;;;;;10.70;45.31;97786.50;5073552;28;20482;-64
2022/03/26 08:36:24;;;;;;;30.05;18.98;;;;;;;10.90;44.97;97783.84;5073375;28;20458;-64
2022/03/26 08:38:50;;;;;;;31.52;18.98;;;;;;;11.11;44.16;97788.88;5073020;28;20387;-64
2022/03/26 08:41:19;;;;;;;36.25;19.45;;;;;;;11.08;44.66;97790.09;5073121;28;20399;-64
2022/03/26 08:43:45;;;;;;;32.17;18.50;;;;;;;11.20;44.73;97790.28;5071857;28;20395;-65
2022/03/26 08:46:10;;;;;;;30.85;19.02;;;;;;;11.33;44.11;97794.66;5073717;28;20402;-64
2022/03/26 08:48:36;;;;;;;31.85;19.35;;;;;;;11.44;44.40;97792.22;5071813;28;20400;-65
2022/03/26 08:51:03;;;;;;;31.60;19.13;;;;;;;11.49;43.63;97794.22;5073189;28;20395;-64
2022/03/26 08:53:28;;;;;;;31.20;18.58;;;;;;;11.50;43.99;97801.06;5073304;28;20396;-63
2022/03/26 08:55:54;;;;;;;31.80;19.02;;;;;;;11.60;43.13;97789.13;5073161;28;20480;-64
2022/03/26 08:58:20;;;;;;;33.33;19.47;;;;;;;11.67;43.27;97791.72;5073217;28;20506;-66
2022/03/26 09:00:51;;;;;;;32.42;19.00;;;;;;;11.76;43.00;97797.59;5057153;28;20462;-64
2022/03/26 09:03:20;;;;;;;34.13;19.55;;;;;;;11.47;43.79;97806.75;5073464;28;20775;-65
2022/03/26 09:05:47;;;;;;;31.63;19.52;;;;;;;11.52;43.56;97796.44;5072879;28;20825;-64
2022/03/26 09:08:12;;;;;;;31.00;19.15;;;;;;;11.73;43.78;97796.19;5073184;28;20403;-64
2022/03/26 09:10:37;;;;;;;31.85;19.35;;;;;;;11.80;43.56;97799.59;5072538;28;20395;-65
2022/03/26 09:13:03;;;;;;;33.80;20.13;;;;;;;11.63;43.79;97793.97;5069123;28;20391;-64
2022/03/26 09:15:28;;;;;;;33.73;19.20;;;;;;;11.90;43.00;97794.69;5062543;28;20418;-66
2022/03/26 09:17:54;;;;;;;33.27;18.93;;;;;;;11.80;43.02;97802.22;5072546;28;20913;-65
2022/03/26 09:20:19;;;;;;;32.00;18.90;;;;;;;11.58;44.10;97803.50;5072497;28;20467;-68
2022/03/26 09:22:45;;;;;;;32.75;19.88;;;;;;;11.64;44.00;97800.03;5072757;28;20384;-64
2022/03/26 09:25:10;;;;;;;34.80;19.80;;;;;;;11.71;44.52;97794.72;5072327;28;20445;-64
2022/03/26 09:27:36;;;;;;;31.63;19.55;;;;;;;11.94;43.20;97793.25;5072761;28;20404;-65
2022/03/26 09:30:03;;;;;;;32.15;19.45;;;;;;;11.83;43.89;97785.22;5071647;28;20395;-66
2022/03/26 09:32:29;;;;;;;33.05;19.98;;;;;;;11.86;43.55;97796.13;5072456;28;20403;-64
2022/03/26 09:34:54;;;;;;;34.80;20.20;;;;;;;11.87;42.85;97800.34;5071042;28;20413;-67
2022/03/26 09:37:19;;;;;;;34.75;20.08;;;;;;;11.82;43.95;97792.28;5072539;28;20408;-66
2022/03/26 09:39:45;;;;;;;37.60;20.47;;;;;;;12.11;43.42;97785.66;5071116;28;20392;-65
2022/03/26 09:42:11;;;;;;;32.47;18.73;;;;;;;12.25;42.99;97786.41;5072272;28;20411;-64
2022/03/26 09:44:37;;;;;;;32.50;20.40;;;;;;;12.35;42.31;97787.53;5036042;28;20885;-65
2022/03/26 09:47:08;;;;;;;31.98;19.63;;;;;;;11.84;43.64;97779.75;5066537;28;20430;-64
2022/03/26 09:49:34;;;;;;;34.50;20.52;;;;;;;12.13;42.47;97781.03;5072039;28;20503;-64
2022/03/26 09:51:59;;;;;;;35.08;20.63;;;;;;;12.39;42.90;97780.84;5072194;28;20745;-64
2022/03/26 09:54:26;;;;;;;33.05;19.83;;;;;;;12.45;42.74;97780.00;5072041;28;20406;-64
2022/03/26 09:56:52;;;;;;;35.58;20.65;;;;;;;12.51;42.30;97778.31;5072232;28;20884;-65
2022/03/26 09:59:22;;;;;;;35.63;19.83;;;;;;;12.72;41.97;97780.56;5072348;28;20427;-65
2022/03/26 10:01:47;;;;;;;33.33;19.98;;;;;;;12.66;41.74;97770.91;5055983;28;20422;-64
2022/03/26 10:04:18;;;;;;;34.53;21.23;;;;;;;12.78;41.45;97784.19;5070734;28;20745;-64
2022/03/26 10:06:51;;;;;;;33.90;20.33;;;;;;;12.78;41.56;97778.91;5070325;28;20807;-66
2022/03/26 10:09:46;;;;;;;31.85;20.27;;;;;;;12.98;41.10;97778.75;5071155;28;20452;-65
2022/03/26 10:12:27;;;;;;;35.33;20.30;;;;;;;13.09;40.08;97770.13;5057822;28;20934;-66
2022/03/26 10:14:58;;;;;;;33.42;20.35;;;;;;;13.37;40.09;97774.94;5064894;28;20420;-64
2022/03/26 10:17:35;;;;;;;32.27;19.67;;;;;;;13.52;39.46;97768.25;5060267;28;20408;-65
2022/03/26 10:20:12;;;;;;;32.45;19.85;;;;;;;13.49;39.13;97767.88;5071803;28;20478;-65
2022/03/26 10:22:45;;;;;;;34.25;20.30;;;;;;;13.53;39.48;97761.16;5069419;28;20418;-64
2022/03/26 10:25:22;;;;;;;34.40;20.30;;;;;;;13.69;39.47;97758.75;5071167;28;20395;-63
2022/03/26 10:27:49;;;;;;;32.88;20.08;;;;;;;13.70;39.08;97760.34;5071293;28;20445;-66
2022/03/26 10:32:38;;;;;;;35.07;20.90;;;;;;;13.78;38.86;97748.69;5071016;28;20388;-64
2022/03/26 10:33:20;;;;;;;37.25;20.77;;;;;;;13.87;38.45;97757.91;5057280;28;20395;-65
2022/03/26 10:35:59;;;;;;;33.88;20.70;;;;;;;14.16;37.90;97746.53;5071570;28;20785;-68
2022/03/26 10:38:33;;;;;;;33.67;20.05;;;;;;;14.15;37.91;97762.59;5056349;28;20419;-64
2022/03/26 10:41:05;;;;;;;34.38;19.65;;;;;;;14.44;37.23;97753.03;5071722;28;20465;-65
2022/03/26 10:43:30;;;;;;;32.97;19.65;;;;;;;14.37;36.63;97747.06;5071662;28;20392;-65
2022/03/26 10:45:58;;;;;;;33.50;20.47;;;;;;;14.59;36.33;97740.22;5071804;28;20392;-64
2022/03/26 10:48:28;;;;;;;35.17;19.30;;;;;;;14.69;36.54;97739.66;5071610;28;20437;-66
2022/03/26 10:51:06;;;;;;;32.85;19.67;;;;;;;14.45;35.92;97747.53;5071739;28;20997;-65
2022/03/26 10:53:36;;;;;;;32.00;19.47;;;;;;;14.53;36.22;97741.94;5071987;28;20392;-65
2022/03/26 10:56:03;;;;;;;34.03;19.50;;;;;;;14.74;35.94;97737.94;5071606;28;20482;-64
2022/03/26 10:58:33;;;;;;;35.70;19.73;;;;;;;14.90;35.31;97729.31;5071248;28;20411;-65
2022/03/26 11:00:59;;;;;;;28.85;17.92;;;;;;;15.00;34.34;97741.94;5071142;28;20491;-66
2022/03/26 11:03:25;;;;;;;32.27;19.17;;;;;;;14.88;34.20;97727.94;5075797;28;20490;-65
2022/03/26 11:05:55;;;;;;;35.75;19.67;;;;;;;14.92;34.19;97734.38;5075804;28;20723;-65
2022/03/26 11:08:23;;;;;;;31.20;19.15;;;;;;;14.87;34.02;97740.34;5077509;28;20403;-67
2022/03/26 11:10:50;;;;;;;31.35;18.65;;;;;;;15.10;34.06;97733.44;5076847;28;20391;-65
2022/03/26 11:13:18;;;;;;;33.58;19.10;;;;;;;15.13;33.86;97743.53;5076747;28;20868;-67
2022/03/26 11:15:48;;;;;;;30.15;18.98;;;;;;;15.02;32.82;97733.78;5060095;28;20760;-66
2022/03/26 11:18:16;;;;;;;30.83;18.17;;;;;;;15.29;33.01;97726.97;5076630;28;20498;-65